Weather History for Sturgeon Bay, WI

Change the Weather History Date:

Wednesday, December 7, 2011

  Actual Average Record
Temperature  
Mean Temperature 24 °F -  
Max Temperature 26 °F 31 °F 49 °F (1946)
Min Temperature 23 °F 19 °F -10 °F (1972)
Degree Days  
Heating Degree Days 40    
Moisture  
Dew Point 15 °F    
Average Humidity 67    
Maximum Humidity 80    
Minimum Humidity 55    
Precipitation  
Precipitation 0.00 in - - ()
Sea Level Pressure  
Sea Level Pressure 29.94 in    
Wind  
Wind Speed 10 mph (WSW)    
Max Wind Speed 15 mph    
Max Gust Speed 20 mph    
Visibility 10 miles    
Events      
Averages and records for this station are not official NWS values.
T = Trace of Precipitation, MM = Missing Value Source: NWS Daily Summary

Daily Weather History Graph

Daily Weather History Graph

Search for Another Location

Airport:

Trip Planner

Search our weather history database for the weather conditions in past years. The results will help you decide how hot, cold, wet, or windy it might be!

Date:

Astronomy

Dec. 07, 2011 Rise Set
Actual Time 7:13 AM CST 4:08 PM CST
Civil Twilight 6:39 AM CST 4:42 PM CST
Nautical Twilight 6:03 AM CST 5:18 PM CST
Astronomical Twilight 5:27 AM CST 5:54 PM CST
Moon 2:11 PM CST (12/7) 4:25 AM CST (12/7)
Length of Visible Light 10h 02m
Length of Day
8h 55m
Waxing Gibbous, 92% of the Moon is Illuminated
Dec 7
Waxing Gibbous
Dec 10
Full
Dec 17
Last Quarter
Dec 24
New
Jan 1
First Quarter

Hourly Weather History & Observations

Time (CST) Temp. Windchill Dew Point Humidity Pressure Visibility Wind Dir Wind Speed Gust Speed Precip Events Conditions
12:15 AM 24.8 °F 15.3 °F 17.6 °F 74% 30.05 in 10.0 mi SSW 9.2 mph - N/A   Overcast
12:35 AM 24.8 °F 15.3 °F 17.6 °F 74% 30.04 in 10.0 mi SSW 9.2 mph - N/A   Overcast
12:55 AM 24.8 °F 16.1 °F 17.6 °F 74% 30.03 in 10.0 mi SSW 8.1 mph - N/A   Overcast
2:15 AM 24.8 °F 16.1 °F 17.6 °F 74% 30.00 in 10.0 mi SSW 8.1 mph - N/A   Overcast
2:35 AM 26.6 °F 16.2 °F 15.8 °F 64% 29.99 in 10.0 mi WSW 11.5 mph 17.3 mph N/A   Mostly Cloudy
2:55 AM 26.6 °F 15.2 °F 15.8 °F 64% 29.98 in 10.0 mi WSW 13.8 mph 19.6 mph N/A   Mostly Cloudy
3:15 AM 26.6 °F 16.2 °F 15.8 °F 64% 29.97 in 10.0 mi SW 11.5 mph - N/A   Mostly Cloudy
3:35 AM 24.8 °F 14.0 °F 15.8 °F 69% 29.96 in 10.0 mi SW 11.5 mph - N/A   Partly Cloudy
3:55 AM 24.8 °F 14.6 °F 15.8 °F 69% 29.95 in 10.0 mi WSW 10.4 mph - N/A   Clear
4:15 AM 24.8 °F 14.6 °F 15.8 °F 69% 29.96 in 10.0 mi WSW 10.4 mph - N/A   Clear
4:35 AM 24.8 °F 14.6 °F 15.8 °F 69% 29.95 in 10.0 mi WSW 10.4 mph - N/A   Clear
4:55 AM 24.8 °F 15.3 °F 15.8 °F 69% 29.95 in 10.0 mi WSW 9.2 mph - N/A   Clear
5:15 AM 23.0 °F 12.4 °F 15.8 °F 74% 29.94 in 10.0 mi SW 10.4 mph - N/A   Clear
5:35 AM 23.0 °F 11.7 °F 15.8 °F 74% 29.93 in 10.0 mi SW 11.5 mph - N/A   Clear
5:55 AM 23.0 °F 11.7 °F 14.0 °F 68% 29.93 in 10.0 mi WSW 11.5 mph - N/A   Scattered Clouds
6:15 AM 24.8 °F 15.3 °F 15.8 °F 69% 29.92 in 10.0 mi SSW 9.2 mph - N/A   Overcast
6:35 AM 24.8 °F 14.0 °F 15.8 °F 69% 29.92 in 10.0 mi SSW 11.5 mph - N/A   Overcast
7:15 AM 24.8 °F 14.0 °F 14.0 °F 64% 29.91 in 10.0 mi SW 11.5 mph - N/A   Overcast
7:55 AM 24.8 °F 13.4 °F 14.0 °F 64% 29.90 in 10.0 mi SW 12.7 mph - N/A   Overcast
8:35 AM 24.8 °F 12.9 °F 14.0 °F 64% 29.90 in 10.0 mi WSW 13.8 mph - N/A   Overcast
8:55 AM 24.8 °F 13.4 °F 14.0 °F 64% 29.90 in 10.0 mi WSW 12.7 mph - N/A   Overcast
9:15 AM 24.8 °F 12.4 °F 14.0 °F 64% 29.91 in 10.0 mi West 15.0 mph 19.6 mph N/A   Overcast
9:35 AM 24.8 °F 12.9 °F 15.8 °F 69% 29.90 in 10.0 mi West 13.8 mph 18.4 mph N/A   Overcast
9:55 AM 24.8 °F 14.0 °F 12.2 °F 59% 29.91 in 10.0 mi West 11.5 mph 19.6 mph N/A   Overcast
10:35 AM 24.8 °F 12.9 °F 12.2 °F 59% 29.90 in 10.0 mi West 13.8 mph - N/A   Overcast
10:55 AM 26.6 °F 16.8 °F 12.2 °F 55% 29.90 in 10.0 mi West 10.4 mph - N/A   Overcast
11:15 AM 26.6 °F 16.8 °F 12.2 °F 55% 29.90 in 10.0 mi West 10.4 mph - N/A   Overcast
11:35 AM 26.6 °F 15.7 °F 12.2 °F 55% 29.89 in 10.0 mi WNW 12.7 mph - N/A   Overcast
11:55 AM 26.6 °F 16.8 °F 12.2 °F 55% 29.89 in 10.0 mi WNW 10.4 mph - N/A   Overcast
12:35 PM 26.6 °F 15.7 °F 14.0 °F 59% 29.88 in 10.0 mi West 12.7 mph - N/A   Overcast
12:55 PM 26.6 °F 15.7 °F 14.0 °F 59% 29.88 in 10.0 mi NW 12.7 mph 17.3 mph N/A   Overcast
1:15 PM 26.6 °F 15.2 °F 14.0 °F 59% 29.88 in 10.0 mi WNW 13.8 mph - N/A   Overcast
1:35 PM 26.6 °F 15.7 °F 15.8 °F 64% 29.88 in 10.0 mi WNW 12.7 mph - N/A   Overcast
1:55 PM 26.6 °F 15.7 °F 15.8 °F 64% 29.89 in 10.0 mi WNW 12.7 mph - N/A   Overcast
2:15 PM 26.6 °F 15.7 °F 15.8 °F 64% 29.90 in 10.0 mi WNW 12.7 mph 17.3 mph N/A   Overcast
2:35 PM 26.6 °F 16.2 °F 15.8 °F 64% 29.90 in 10.0 mi WNW 11.5 mph - N/A   Overcast
2:55 PM 26.6 °F 16.8 °F 15.8 °F 64% 29.91 in 10.0 mi WNW 10.4 mph - N/A   Overcast
3:15 PM 26.6 °F 16.8 °F 15.8 °F 64% 29.92 in 10.0 mi West 10.4 mph - N/A   Overcast
3:55 PM 26.6 °F 16.2 °F 15.8 °F 64% 29.93 in 10.0 mi WNW 11.5 mph - N/A   Overcast
4:55 PM 26.6 °F 16.8 °F 15.8 °F 64% 29.95 in 10.0 mi WNW 10.4 mph - N/A   Scattered Clouds
5:15 PM 26.6 °F 17.5 °F 15.8 °F 64% 29.95 in 10.0 mi WNW 9.2 mph - N/A   Partly Cloudy
5:35 PM 24.8 °F 15.3 °F 15.8 °F 69% 29.97 in 10.0 mi West 9.2 mph - N/A   Clear
5:55 PM 24.8 °F 16.1 °F 15.8 °F 69% 29.97 in 10.0 mi West 8.1 mph - N/A   Clear
6:15 PM 24.8 °F 16.9 °F 15.8 °F 69% 29.98 in 10.0 mi West 6.9 mph - N/A   Clear
6:35 PM 24.8 °F 16.9 °F 15.8 °F 69% 29.99 in 10.0 mi West 6.9 mph - N/A   Clear
7:15 PM 23.0 °F 15.8 °F 15.8 °F 74% 29.98 in 10.0 mi WSW 5.8 mph - N/A   Clear
7:35 PM 23.0 °F 15.8 °F 17.6 °F 80% 29.98 in 10.0 mi WSW 5.8 mph - N/A   Clear
7:55 PM 23.0 °F 15.8 °F 17.6 °F 80% 29.99 in 10.0 mi WSW 5.8 mph - N/A   Clear
8:15 PM 23.0 °F 13.9 °F 17.6 °F 80% 30.00 in 10.0 mi West 8.1 mph - N/A   Clear
8:35 PM 23.0 °F 13.9 °F 17.6 °F 80% 30.00 in 10.0 mi West 8.1 mph - N/A   Clear
8:55 PM 23.0 °F 14.7 °F 17.6 °F 80% 30.00 in 10.0 mi West 6.9 mph - N/A   Clear
9:15 PM 21.2 °F 11.7 °F 17.6 °F 86% 30.00 in 10.0 mi WSW 8.1 mph - N/A   Clear
9:35 PM 21.2 °F 10.9 °F 17.6 °F 86% 30.00 in 10.0 mi WSW 9.2 mph - N/A   Clear
9:55 PM 21.2 °F 10.9 °F 15.8 °F 80% 30.00 in 10.0 mi WSW 9.2 mph - N/A   Clear
10:15 PM 21.2 °F 11.7 °F 15.8 °F 80% 29.99 in 10.0 mi WSW 8.1 mph - N/A   Clear
10:35 PM 21.2 °F 11.7 °F 15.8 °F 80% 30.00 in 10.0 mi WSW 8.1 mph - N/A   Clear
10:55 PM 21.2 °F 10.9 °F 15.8 °F 80% 30.00 in 10.0 mi WSW 9.2 mph - N/A   Clear
11:55 PM 21.2 °F 10.1 °F 15.8 °F 80% 29.99 in 10.0 mi WSW 10.4 mph - N/A   Clear